createdAt,value
2019-03-01T00:00:00.946Z,9.4
2019-03-01T00:10:00.566Z,9.4
2019-03-01T00:20:00.553Z,9.4
2019-03-01T00:30:00.707Z,9.4
2019-03-01T00:40:00.540Z,9.4
2019-03-01T00:50:00.597Z,9.4
2019-03-01T01:00:00.751Z,9.3
2019-03-01T01:10:00.558Z,9.3
2019-03-01T01:20:00.571Z,9.3
2019-03-01T01:30:00.763Z,9.1
2019-03-01T01:40:00.652Z,9.1
2019-03-01T01:50:00.552Z,9.1
2019-03-01T02:00:00.669Z,9.1
2019-03-01T02:10:00.377Z,9.1
2019-03-01T02:20:00.553Z,8.9
2019-03-01T02:30:00.752Z,8.9
2019-03-01T02:40:00.607Z,9.1
2019-03-01T02:50:00.621Z,9.1
2019-03-01T03:00:01.029Z,9.1
2019-03-01T03:10:00.589Z,9.1
2019-03-01T03:20:00.602Z,9.1
2019-03-01T03:30:00.812Z,9.1
2019-03-01T03:40:00.618Z,8.9
2019-03-01T03:50:00.602Z,8.9
2019-03-01T04:00:01.050Z,8.9
2019-03-01T04:10:00.540Z,8.9
2019-03-01T04:20:00.572Z,8.9
2019-03-01T04:30:00.711Z,8.8
2019-03-01T04:40:00.553Z,8.8
2019-03-01T04:50:00.591Z,8.8
2019-03-01T05:00:00.826Z,8.8
2019-03-01T05:10:00.608Z,8.8
2019-03-01T05:20:00.626Z,8.7
2019-03-01T05:30:00.726Z,8.6
2019-03-01T05:40:00.638Z,8.6
2019-03-01T05:50:00.652Z,8.6
2019-03-01T06:00:00.819Z,8.6
2019-03-01T06:10:00.752Z,8.6
2019-03-01T06:20:00.781Z,8.5
2019-03-01T06:30:01.080Z,8.5
2019-03-01T06:40:00.747Z,8.5
2019-03-01T06:50:00.848Z,8.5
2019-03-01T07:00:00.952Z,8.5
2019-03-01T07:10:00.665Z,8.5
2019-03-01T07:20:00.816Z,8.6
2019-03-01T07:30:00.965Z,8.6
2019-03-01T07:40:00.793Z,8.6
2019-03-01T07:50:00.752Z,8.6
2019-03-01T08:00:01.128Z,8.8
2019-03-01T08:10:00.716Z,8.8
2019-03-01T08:20:00.753Z,8.8
2019-03-01T08:30:00.787Z,8.8
2019-03-01T08:40:00.688Z,8.8
2019-03-01T08:50:00.703Z,8.8
2019-03-01T09:00:00.784Z,9
2019-03-01T09:10:00.723Z,9
2019-03-01T09:20:01.166Z,9
2019-03-01T09:30:03.452Z,9.3
2019-03-01T09:40:05.355Z,9.3
2019-03-01T09:50:01.185Z,9.3
2019-03-01T10:00:00.772Z,9.5
2019-03-01T10:10:00.702Z,9.5
2019-03-01T10:20:00.891Z,9
2019-03-01T10:30:00.788Z,9
2019-03-01T10:40:00.790Z,9
2019-03-01T10:50:00.775Z,8.5
2019-03-01T11:00:00.853Z,8.5
2019-03-01T11:10:00.787Z,8.2
2019-03-01T11:20:00.711Z,8.2
2019-03-01T11:30:00.956Z,8.2
2019-03-01T11:40:00.741Z,8.2
2019-03-01T11:50:00.723Z,8.5
2019-03-01T12:00:00.942Z,8.5
2019-03-01T12:10:00.744Z,8.6
2019-03-01T12:20:00.775Z,8.6
2019-03-01T12:30:00.910Z,8.6
2019-03-01T12:40:00.716Z,8.6
2019-03-01T12:50:00.751Z,8.3
2019-03-01T13:00:00.917Z,8
2019-03-01T13:10:02.725Z,7.2
2019-03-01T13:20:01.012Z,7.2
2019-03-01T13:30:00.902Z,7
2019-03-01T13:40:00.818Z,6.6
2019-03-01T13:50:05.372Z,6.6
2019-03-01T14:00:00.735Z,6.5
2019-03-01T14:10:04.338Z,6.5
2019-03-01T14:20:00.742Z,6
2019-03-01T14:30:00.798Z,6
2019-03-01T14:40:00.703Z,5.8
2019-03-01T14:50:00.851Z,5.7
2019-03-01T15:00:00.843Z,5.7
2019-03-01T15:10:00.719Z,5.7
2019-03-01T15:20:00.735Z,5.6
2019-03-01T15:30:00.895Z,5.5
2019-03-01T15:40:00.767Z,5.5
2019-03-01T15:50:00.701Z,5.5
2019-03-01T16:00:01.034Z,5.5
2019-03-01T16:10:00.997Z,5.5
2019-03-01T16:20:00.690Z,5.5
2019-03-01T16:30:01.546Z,5.4
2019-03-01T16:40:01.428Z,5.4
2019-03-01T16:50:02.678Z,5.4
2019-03-01T17:00:01.032Z,5.4
2019-03-01T17:10:00.722Z,5.5
2019-03-01T17:20:02.250Z,5.5
2019-03-01T17:30:00.720Z,5.5
2019-03-01T17:40:00.702Z,5.5
2019-03-01T17:50:00.676Z,5.5
2019-03-01T18:00:00.691Z,5.5
2019-03-01T18:10:00.704Z,5.5
2019-03-01T18:20:01.510Z,5.5
2019-03-01T18:30:01.022Z,5.6
2019-03-01T18:40:00.632Z,5.6
2019-03-01T18:50:00.591Z,5.6
2019-03-01T19:00:01.100Z,5.6
2019-03-01T19:10:00.632Z,5.6
2019-03-01T19:20:01.870Z,5.6
2019-03-01T19:30:00.750Z,5.6
2019-03-01T19:40:00.698Z,5.6
2019-03-01T19:50:00.706Z,5.6
2019-03-01T20:00:00.837Z,5.6
2019-03-01T20:10:00.630Z,5.5
2019-03-01T20:20:00.741Z,5.5
2019-03-01T20:30:00.740Z,5.5
2019-03-01T20:40:00.642Z,5.5
2019-03-01T20:50:00.619Z,5.5
2019-03-01T21:00:01.780Z,5.5
2019-03-01T21:10:00.616Z,5.5
2019-03-01T21:20:00.337Z,5.5
2019-03-01T21:30:00.726Z,5.5
2019-03-01T21:40:00.709Z,5.5
2019-03-01T21:50:03.845Z,5.5
2019-03-01T22:00:00.782Z,5.5
2019-03-01T22:10:00.797Z,5.3
2019-03-01T22:20:00.600Z,5.3
2019-03-01T22:30:00.748Z,5.3
2019-03-01T22:40:00.634Z,5.3
2019-03-01T22:50:03.945Z,5.3
2019-03-01T23:00:00.785Z,5.3
2019-03-01T23:10:00.612Z,5.3
2019-03-01T23:20:00.579Z,5.3
2019-03-01T23:30:00.804Z,5.3
2019-03-01T23:40:01.114Z,5.3
2019-03-01T23:50:00.744Z,5.3
